Time;durP1;ratioP1;P1;durP2;ratioP2;P2;SDS_P1;SDS_P2;PMS_P1;PMS_P2;Temp;Humidity;BMP_temperature;BMP_pressure;BME280_temperature;BME280_humidity;BME280_pressure;Samples;Min_cycle;Max_cycle;Signal;HPM_P1;HPM_P2
2022/04/30 00:02:06;;;;;;;15.15;7.80;;;7.80;99.90;;;;;;5072497;28;20478;-75
2022/04/30 00:04:37;;;;;;;16.60;8.32;;;7.80;99.90;;;;;;5055153;28;20064;-76
2022/04/30 00:07:03;;;;;;;15.80;8.68;;;7.80;99.90;;;;;;5072401;28;20118;-75
2022/04/30 00:09:29;;;;;;;15.77;8.70;;;7.80;99.90;;;;;;5072466;28;20063;-76
2022/04/30 00:11:55;;;;;;;15.75;7.47;;;7.80;99.90;;;;;;5072183;28;20522;-76
2022/04/30 00:14:21;;;;;;;16.10;7.63;;;7.80;99.90;;;;;;5072289;28;20029;-76
2022/04/30 00:16:47;;;;;;;15.10;8.30;;;7.80;99.90;;;;;;5070551;28;20028;-76
2022/04/30 00:19:13;;;;;;;16.80;8.15;;;7.80;99.90;;;;;;5051805;28;20111;-76
2022/04/30 00:21:38;;;;;;;16.38;8.60;;;7.80;99.90;;;;;;5051944;28;20033;-76
2022/04/30 00:24:04;;;;;;;16.92;7.78;;;7.70;99.90;;;;;;5052629;28;20047;-76
2022/04/30 00:26:31;;;;;;;16.48;7.78;;;7.70;99.90;;;;;;5051320;28;20477;-76
2022/04/30 00:28:56;;;;;;;15.20;8.15;;;7.70;99.90;;;;;;5051981;28;20072;-76
2022/04/30 00:31:22;;;;;;;15.38;8.13;;;7.70;99.90;;;;;;5052025;28;20021;-76
2022/04/30 00:33:48;;;;;;;18.40;8.05;;;7.70;99.90;;;;;;5051716;28;20096;-77
2022/04/30 00:36:15;;;;;;;16.58;7.75;;;7.60;99.90;;;;;;5051800;28;20013;-74
2022/04/30 00:38:41;;;;;;;14.23;8.02;;;7.60;99.90;;;;;;5051471;28;20029;-74
2022/04/30 00:41:08;;;;;;;16.58;8.02;;;7.60;99.90;;;;;;5051335;28;20049;-74
2022/04/30 00:43:47;;;;;;;13.68;7.95;;;7.60;99.90;;;;;;5066251;28;20468;-75
2022/04/30 00:46:16;;;;;;;19.77;8.93;;;7.50;99.90;;;;;;5071426;28;20023;-74
2022/04/30 00:48:43;;;;;;;11.23;7.47;;;7.50;99.90;;;;;;5071564;28;20028;-74
2022/04/30 00:51:13;;;;;;;15.93;7.72;;;7.50;99.90;;;;;;5071368;28;20024;-74
2022/04/30 00:53:41;;;;;;;12.18;7.82;;;7.40;99.90;;;;;;5070974;28;20538;-75
2022/04/30 00:56:12;;;;;;;13.82;8.07;;;7.50;99.90;;;;;;5071726;28;20476;-75
2022/04/30 00:58:42;;;;;;;16.98;7.85;;;7.40;99.90;;;;;;5071282;28;20199;-76
2022/04/30 01:01:09;;;;;;;19.00;7.93;;;7.40;99.90;;;;;;5071559;28;20115;-76
2022/04/30 01:03:36;;;;;;;17.38;8.45;;;7.30;99.90;;;;;;5071382;28;20515;-75
2022/04/30 01:06:03;;;;;;;14.55;7.63;;;7.30;99.90;;;;;;5053194;28;20055;-75
2022/04/30 01:08:30;;;;;;;12.23;7.93;;;7.30;99.90;;;;;;5071041;28;20426;-74
2022/04/30 01:11:03;;;;;;;13.77;7.38;;;7.40;99.90;;;;;;5071239;28;20033;-75
2022/04/30 01:13:34;;;;;;;12.77;7.57;;;7.30;99.90;;;;;;5071263;28;20073;-76
2022/04/30 01:16:04;;;;;;;15.32;7.78;;;7.30;99.90;;;;;;5053438;28;20032;-74
2022/04/30 01:18:33;;;;;;;17.38;7.90;;;7.30;99.90;;;;;;5053345;28;20055;-76
2022/04/30 01:21:07;;;;;;;13.95;7.25;;;7.30;99.90;;;;;;5070811;28;20048;-75
2022/04/30 01:23:34;;;;;;;11.50;7.18;;;7.30;99.90;;;;;;5072130;28;20111;-76
2022/04/30 01:26:01;;;;;;;16.00;8.10;;;7.30;99.90;;;;;;5071564;28;20499;-75
2022/04/30 01:28:28;;;;;;;16.85;7.82;;;7.30;99.90;;;;;;5071367;28;20391;-76
2022/04/30 01:30:53;;;;;;;12.77;7.57;;;7.30;99.90;;;;;;5071048;28;20029;-75
2022/04/30 01:38:48;;;;;;;16.37;8.10;;;7.20;99.90;;;;;;5074404;28;20154;-75
2022/04/30 01:41:13;;;;;;;15.23;7.95;;;7.20;99.90;;;;;;5075051;28;20120;-76
2022/04/30 01:43:39;;;;;;;13.68;7.93;;;7.20;99.90;;;;;;5040805;28;20021;-76
2022/04/30 01:46:05;;;;;;;18.30;8.45;;;7.20;99.90;;;;;;5055108;28;20025;-76
2022/04/30 01:48:32;;;;;;;15.05;8.13;;;7.20;99.90;;;;;;5054636;28;20088;-76
2022/04/30 01:50:57;;;;;;;14.27;8.10;;;7.20;99.90;;;;;;5054354;28;20044;-75
2022/04/30 01:53:23;;;;;;;11.85;7.18;;;7.10;99.90;;;;;;5054243;28;20033;-75
2022/04/30 01:55:49;;;;;;;17.70;8.13;;;7.10;99.90;;;;;;5054783;28;20028;-76
2022/04/30 01:58:14;;;;;;;12.82;7.55;;;7.10;99.90;;;;;;5054786;28;20027;-76
2022/04/30 02:00:40;;;;;;;15.98;7.22;;;7.10;99.90;;;;;;5054346;28;20083;-76
2022/04/30 02:03:08;;;;;;;13.50;7.63;;;7.10;99.90;;;;;;5054648;28;20516;-75
2022/04/30 02:05:36;;;;;;;21.00;7.53;;;7.10;99.90;;;;;;5054691;28;20428;-75
2022/04/30 02:08:09;;;;;;;12.70;7.63;;;7.10;99.90;;;;;;5056543;28;20025;-75
2022/04/30 02:10:39;;;;;;;11.55;8.00;;;7.10;99.90;;;;;;5055097;28;20087;-75
2022/04/30 02:13:06;;;;;;;17.88;7.60;;;7.10;99.90;;;;;;5055171;28;20041;-76
2022/04/30 02:15:34;;;;;;;10.38;7.05;;;7.10;99.90;;;;;;5054575;28;20555;-75
2022/04/30 02:18:06;;;;;;;11.38;7.10;;;7.00;99.90;;;;;;5037308;28;20070;-75
2022/04/30 02:20:34;;;;;;;14.73;7.75;;;7.00;99.90;;;;;;5036658;28;20053;-75
2022/04/30 02:23:02;;;;;;;13.45;7.10;;;7.00;99.90;;;;;;5054737;28;20400;-76
2022/04/30 02:25:28;;;;;;;12.57;7.30;;;7.00;99.90;;;;;;5054102;28;20017;-77
2022/04/30 02:27:58;;;;;;;13.18;7.25;;;7.00;99.90;;;;;;5054694;28;20029;-76
2022/04/30 02:30:26;;;;;;;11.98;7.32;;;7.00;99.90;;;;;;5054174;28;20025;-76
2022/04/30 02:33:03;;;;;;;18.58;7.50;;;7.00;99.90;;;;;;5037088;28;20021;-75
2022/04/30 02:35:30;;;;;;;13.80;7.68;;;7.00;99.90;;;;;;5055371;28;20128;-75
2022/04/30 02:37:58;;;;;;;13.73;7.60;;;7.00;99.90;;;;;;5053786;28;20025;-76
2022/04/30 02:40:25;;;;;;;11.98;8.02;;;7.00;99.90;;;;;;5054009;28;20037;-75
2022/04/30 02:42:52;;;;;;;16.00;8.00;;;7.00;99.90;;;;;;5063192;28;20028;-76
2022/04/30 02:45:19;;;;;;;15.40;8.13;;;7.10;99.90;;;;;;5073951;28;20272;-76
2022/04/30 02:47:52;;;;;;;14.38;8.30;;;7.10;99.90;;;;;;5074043;28;20020;-76
2022/04/30 02:50:18;;;;;;;14.98;8.15;;;7.20;99.90;;;;;;5074938;28;20028;-76
2022/04/30 02:52:44;;;;;;;14.05;7.90;;;7.20;99.90;;;;;;5074934;28;20108;-75
2022/04/30 02:55:11;;;;;;;21.27;8.43;;;7.30;99.90;;;;;;5073873;28;20115;-75
2022/04/30 03:00:39;;;;;;;14.45;8.27;;;7.40;99.90;;;;;;5073553;28;20186;-75
2022/04/30 03:03:09;;;;;;;12.77;8.30;;;7.40;99.90;;;;;;5073246;28;20051;-76
2022/04/30 03:05:43;;;;;;;13.43;8.00;;;7.50;99.90;;;;;;5073529;28;20369;-75
2022/04/30 03:08:14;;;;;;;17.92;8.23;;;7.50;99.90;;;;;;5073475;28;20043;-75
2022/04/30 03:10:41;;;;;;;15.32;7.90;;;7.60;99.90;;;;;;5073132;28;20038;-76
2022/04/30 03:13:07;;;;;;;14.68;7.80;;;7.60;99.90;;;;;;5073364;28;20051;-76
2022/04/30 03:15:34;;;;;;;13.27;7.57;;;7.60;99.90;;;;;;5073466;28;20025;-76
2022/04/30 03:23:29;;;;;;;12.38;7.70;;;7.80;99.90;;;;;;5073371;28;20035;-76
2022/04/30 03:25:55;;;;;;;15.43;8.25;;;7.80;99.90;;;;;;5054865;28;20539;-75
2022/04/30 03:28:20;;;;;;;12.85;7.68;;;7.90;99.90;;;;;;5073019;28;20104;-76
2022/04/30 03:30:46;;;;;;;11.45;7.13;;;7.90;99.90;;;;;;5038028;28;20029;-76
2022/04/30 03:33:12;;;;;;;14.25;7.38;;;7.90;99.90;;;;;;5072727;28;20107;-75
2022/04/30 03:35:41;;;;;;;13.45;7.30;;;8.00;99.90;;;;;;5072415;28;20025;-75
2022/04/30 03:38:08;;;;;;;13.23;7.25;;;8.00;99.90;;;;;;5072766;28;20032;-76
2022/04/30 03:40:34;;;;;;;10.13;6.90;;;8.00;99.90;;;;;;5072221;28;20033;-76
2022/04/30 03:43:01;;;;;;;9.82;6.82;;;8.10;99.90;;;;;;5061919;28;20040;-75
2022/04/30 03:45:27;;;;;;;8.82;6.63;;;8.10;99.90;;;;;;5052359;28;20178;-76
2022/04/30 03:47:53;;;;;;;11.10;7.20;;;8.10;99.90;;;;;;5052412;28;20028;-76
2022/04/30 03:50:18;;;;;;;12.15;8.02;;;8.20;99.90;;;;;;5052063;28;20021;-75
2022/04/30 03:52:44;;;;;;;9.13;7.03;;;8.20;99.90;;;;;;5053116;28;20025;-76
2022/04/30 03:55:10;;;;;;;9.25;7.10;;;8.30;99.90;;;;;;5052955;28;20407;-76
2022/04/30 03:57:36;;;;;;;11.07;6.93;;;8.30;99.90;;;;;;5052773;28;20021;-76
2022/04/30 04:00:04;;;;;;;13.40;6.78;;;8.30;99.90;;;;;;5052030;28;20029;-76
2022/04/30 04:02:30;;;;;;;10.82;6.72;;;8.40;99.90;;;;;;5052884;28;20028;-77
2022/04/30 04:04:56;;;;;;;11.30;6.20;;;8.40;99.90;;;;;;5052751;28;20033;-75
2022/04/30 04:07:21;;;;;;;12.95;7.40;;;8.40;99.90;;;;;;5052429;28;20021;-75
2022/04/30 04:09:47;;;;;;;10.40;7.60;;;8.40;99.90;;;;;;5053199;28;20033;-75
2022/04/30 04:12:12;;;;;;;12.02;7.70;;;8.40;99.90;;;;;;5055454;28;20055;-75
2022/04/30 04:17:38;;;;;;;9.35;6.80;;;8.40;99.90;;;;;;5057103;28;20116;-76
2022/04/30 04:20:13;;;;;;;12.45;7.18;;;8.40;99.90;;;;;;5057019;28;20140;-75
2022/04/30 04:22:38;;;;;;;;;;;8.50;99.90;;;;;;5058509;28;20039;-76
2022/04/30 04:27:54;;;;;;;10.60;6.97;;;8.50;99.90;;;;;;5054799;28;20079;-76
2022/04/30 04:30:23;;;;;;;13.32;7.72;;;8.50;99.90;;;;;;5053418;28;20057;-76
2022/04/30 04:32:49;;;;;;;10.25;7.28;;;8.50;99.90;;;;;;5035711;28;20084;-76
2022/04/30 04:35:16;;;;;;;10.52;6.97;;;8.50;99.90;;;;;;5053275;28;20021;-76
2022/04/30 04:37:42;;;;;;;12.60;6.90;;;8.50;99.90;;;;;;5052745;28;20095;-76
2022/04/30 04:40:09;;;;;;;13.45;7.18;;;8.50;99.90;;;;;;5052630;28;20037;-76
2022/04/30 04:42:36;;;;;;;15.02;7.53;;;8.50;99.90;;;;;;5052951;28;20032;-76
2022/04/30 04:45:02;;;;;;;9.73;6.63;;;8.50;99.90;;;;;;5052437;28;20028;-77
2022/04/30 04:47:28;;;;;;;14.02;7.10;;;8.50;99.90;;;;;;5034626;28;20029;-76
2022/04/30 04:49:54;;;;;;;11.77;6.82;;;8.50;99.90;;;;;;5059769;28;20422;-76
2022/04/30 04:52:21;;;;;;;13.20;7.07;;;8.50;99.90;;;;;;5072652;28;20107;-76
2022/04/30 04:54:46;;;;;;;15.93;6.97;;;8.50;99.90;;;;;;5073126;28;20040;-76
2022/04/30 04:57:12;;;;;;;14.85;7.90;;;8.50;99.90;;;;;;5073892;28;20021;-75
2022/04/30 04:59:38;;;;;;;12.82;7.43;;;8.50;99.90;;;;;;5071540;28;20024;-75
2022/04/30 05:02:04;;;;;;;11.65;7.20;;;8.50;99.90;;;;;;5069255;28;20114;-75
2022/04/30 05:04:32;;;;;;;13.98;7.05;;;8.60;99.90;;;;;;5064844;28;20021;-75
2022/04/30 05:06:57;;;;;;;10.10;7.13;;;8.60;99.90;;;;;;5064687;28;20422;-76
2022/04/30 05:09:23;;;;;;;15.07;7.25;;;8.60;99.90;;;;;;5064055;28;20042;-75
2022/04/30 05:11:48;;;;;;;12.77;7.47;;;8.60;99.90;;;;;;5063136;28;20043;-76
2022/04/30 05:14:14;;;;;;;13.40;7.55;;;8.70;99.90;;;;;;5069605;28;20024;-76
2022/04/30 05:16:39;;;;;;;11.82;7.57;;;8.70;99.90;;;;;;5070444;28;20025;-76
2022/04/30 05:19:05;;;;;;;12.13;7.47;;;8.70;99.90;;;;;;5069429;28;20103;-76
2022/04/30 05:21:31;;;;;;;13.90;7.82;;;8.70;99.90;;;;;;5069828;28;20055;-76
2022/04/30 05:23:57;;;;;;;12.52;7.65;;;8.70;99.90;;;;;;5068053;28;20050;-78
2022/04/30 05:26:23;;;;;;;11.85;7.03;;;8.70;99.90;;;;;;5068529;28;20025;-78
2022/04/30 05:28:50;;;;;;;11.52;7.60;;;8.80;99.90;;;;;;5064806;28;20017;-76
2022/04/30 05:31:15;;;;;;;13.35;7.88;;;8.80;99.90;;;;;;5062705;28;20029;-77
2022/04/30 05:33:41;;;;;;;15.73;8.45;;;8.80;99.90;;;;;;5047165;28;20082;-77
2022/04/30 05:36:07;;;;;;;13.52;8.05;;;8.80;99.90;;;;;;5064654;28;20021;-78
2022/04/30 05:38:32;;;;;;;13.07;7.97;;;8.80;99.90;;;;;;5070529;28;20025;-76
2022/04/30 05:40:58;;;;;;;11.50;7.90;;;8.80;99.90;;;;;;5069303;28;20496;-77
2022/04/30 05:43:23;;;;;;;16.40;8.45;;;8.90;99.90;;;;;;5068684;28;20494;-77
2022/04/30 05:45:49;;;;;;;14.32;8.30;;;8.90;99.90;;;;;;5051902;28;20108;-79
2022/04/30 05:48:15;;;;;;;13.27;8.57;;;8.90;99.90;;;;;;5069340;28;20499;-77
2022/04/30 05:50:41;;;;;;;16.70;7.90;;;8.90;99.90;;;;;;5069357;28;20052;-77
2022/04/30 05:53:07;;;;;;;13.38;8.07;;;8.90;99.90;;;;;;5052312;28;20134;-77
2022/04/30 05:55:32;;;;;;;15.98;8.13;;;8.90;99.90;;;;;;5070583;28;20549;-77
2022/04/30 05:57:58;;;;;;;13.75;7.95;;;8.90;99.90;;;;;;5070313;28;20411;-77
2022/04/30 06:00:23;;;;;;;18.95;8.50;;;9.00;99.90;;;;;;5070374;28;20028;-78
2022/04/30 06:02:49;;;;;;;13.32;8.02;;;9.00;99.90;;;;;;5070766;28;20463;-77
2022/04/30 06:05:15;;;;;;;16.98;8.27;;;9.00;99.90;;;;;;5070563;28;20017;-77
2022/04/30 06:07:41;;;;;;;15.57;7.82;;;9.00;99.90;;;;;;5070279;28;20373;-78
2022/04/30 06:10:07;;;;;;;13.25;8.35;;;9.00;99.90;;;;;;5070300;28;20492;-77
2022/04/30 06:12:36;;;;;;;13.65;7.93;;;9.10;99.90;;;;;;5070683;28;20054;-77
2022/04/30 06:15:01;;;;;;;13.63;7.93;;;9.10;99.90;;;;;;5070348;28;20029;-77
2022/04/30 06:17:27;;;;;;;14.32;8.07;;;9.10;99.90;;;;;;5071398;28;20043;-77
2022/04/30 06:19:53;;;;;;;15.25;7.68;;;9.10;99.90;;;;;;5070478;28;20048;-78
2022/04/30 06:22:18;;;;;;;13.27;7.78;;;9.10;99.90;;;;;;5070674;28;20480;-75
2022/04/30 06:24:44;;;;;;;15.48;8.30;;;9.20;99.90;;;;;;5054909;28;20490;-77
2022/04/30 06:27:09;;;;;;;14.52;7.85;;;9.30;99.90;;;;;;5074400;28;20024;-77
2022/04/30 06:29:35;;;;;;;13.27;7.60;;;9.30;99.90;;;;;;5074332;28;20069;-78
2022/04/30 06:32:01;;;;;;;15.68;7.88;;;9.40;99.90;;;;;;5070953;28;20388;-77
2022/04/30 06:34:27;;;;;;;15.13;7.72;;;9.40;99.90;;;;;;5070371;28;20111;-76
2022/04/30 06:36:53;;;;;;;14.30;7.57;;;9.50;99.90;;;;;;5070585;28;20147;-75
2022/04/30 06:39:19;;;;;;;13.57;7.05;;;9.50;99.90;;;;;;5073522;28;20048;-75
2022/04/30 06:41:44;;;;;;;15.82;7.03;;;9.50;99.90;;;;;;5073490;28;20024;-75
2022/04/30 06:44:10;;;;;;;11.57;6.95;;;9.50;99.90;;;;;;5055596;28;20448;-75
2022/04/30 06:46:35;;;;;;;12.27;6.78;;;9.60;99.90;;;;;;5074251;28;20032;-75
2022/04/30 06:49:01;;;;;;;11.68;6.38;;;9.60;99.90;;;;;;5074932;28;20024;-76
2022/04/30 06:51:27;;;;;;;13.20;6.30;;;9.60;99.90;;;;;;5075188;28;20032;-77
2022/04/30 06:59:22;;;;;;;13.75;6.55;;;9.80;99.90;;;;;;5076923;28;20081;-75
2022/04/30 07:01:57;;;;;;;10.77;6.57;;;9.90;99.90;;;;;;5073458;28;20024;-75
2022/04/30 07:04:24;;;;;;;12.17;6.00;;;9.90;99.90;;;;;;5073663;28;20151;-75
2022/04/30 07:06:50;;;;;;;17.02;6.30;;;10.00;99.90;;;;;;5059539;28;20089;-76
2022/04/30 07:09:16;;;;;;;17.35;6.07;;;10.00;99.90;;;;;;5060600;28;20115;-76
2022/04/30 07:11:42;;;;;;;13.80;5.50;;;10.10;99.90;;;;;;5060612;28;20033;-75
2022/04/30 07:14:08;;;;;;;9.85;5.72;;;10.10;99.90;;;;;;5053314;28;20027;-76
2022/04/30 07:16:33;;;;;;;9.15;5.28;;;10.20;99.90;;;;;;5051966;28;20423;-76
2022/04/30 07:19:00;;;;;;;13.70;5.30;;;10.30;99.90;;;;;;5054241;28;20028;-75
2022/04/30 07:21:28;;;;;;;9.68;5.18;;;10.40;99.90;;;;;;5051663;28;20053;-76
2022/04/30 07:23:54;;;;;;;10.45;4.68;;;10.40;99.90;;;;;;5052579;28;20024;-78
2022/04/30 07:26:19;;;;;;;10.10;4.93;;;10.50;99.90;;;;;;5052601;28;20083;-76
2022/04/30 07:28:46;;;;;;;11.13;4.80;;;10.60;99.90;;;;;;5053464;28;20017;-75
2022/04/30 07:31:12;;;;;;;9.63;5.15;;;10.60;99.90;;;;;;5052258;28;20029;-76
2022/04/30 07:33:38;;;;;;;11.52;4.90;;;10.70;99.90;;;;;;5052404;28;20039;-78
2022/04/30 07:36:04;;;;;;;9.35;4.80;;;10.70;99.90;;;;;;5051461;28;20029;-76
2022/04/30 07:38:30;;;;;;;15.77;4.75;;;10.70;99.90;;;;;;5052507;28;20075;-75
2022/04/30 07:40:56;;;;;;;9.88;4.90;;;10.70;99.90;;;;;;5034166;28;20040;-75
2022/04/30 07:43:22;;;;;;;10.45;4.55;;;10.90;99.90;;;;;;5052111;28;20469;-76
2022/04/30 07:45:47;;;;;;;11.32;4.60;;;11.00;99.90;;;;;;5034131;28;20497;-75
2022/04/30 07:48:13;;;;;;;9.07;4.72;;;11.20;99.90;;;;;;5051970;28;20419;-75
2022/04/30 07:50:38;;;;;;;10.30;4.90;;;11.40;99.90;;;;;;5051686;28;20392;-76
2022/04/30 07:53:06;;;;;;;8.13;4.25;;;11.50;99.90;;;;;;5052011;28;20036;-76
2022/04/30 07:55:32;;;;;;;8.98;4.53;;;11.70;99.90;;;;;;5051914;28;20082;-74
2022/04/30 07:57:58;;;;;;;10.45;4.38;;;11.70;99.90;;;;;;5051850;28;20099;-76
2022/04/30 08:00:25;;;;;;;8.27;4.18;;;11.80;99.90;;;;;;5051801;28;20048;-76
2022/04/30 08:02:50;;;;;;;8.73;4.10;;;11.90;99.90;;;;;;5051949;28;20408;-75
2022/04/30 08:05:16;;;;;;;6.00;4.10;;;11.80;99.90;;;;;;5052082;28;20024;-76
2022/04/30 08:07:42;;;;;;;10.00;4.78;;;11.80;99.90;;;;;;5051604;28;20477;-75
2022/04/30 08:10:08;;;;;;;10.70;4.60;;;11.80;99.90;;;;;;5052824;28;20044;-77
2022/04/30 08:12:34;;;;;;;6.78;4.25;;;11.90;99.90;;;;;;5051093;28;20021;-76
2022/04/30 08:14:59;;;;;;;10.52;4.78;;;11.90;99.90;;;;;;5051122;28;20086;-77
2022/04/30 08:17:27;;;;;;;9.05;4.40;;;12.00;99.90;;;;;;5051317;28;20029;-77
2022/04/30 08:19:53;;;;;;;6.05;3.88;;;12.10;99.90;;;;;;5051925;28;20053;-76
2022/04/30 08:22:19;;;;;;;13.15;4.60;;;12.30;99.90;;;;;;5053012;28;20036;-75
2022/04/30 08:24:45;;;;;;;11.63;4.55;;;12.40;99.90;;;;;;5052940;28;20053;-76
2022/04/30 08:27:11;;;;;;;7.40;4.47;;;12.50;99.90;;;;;;5051727;28;20020;-76
2022/04/30 08:29:36;;;;;;;13.20;4.00;;;12.60;99.90;;;;;;5067869;28;20024;-76
2022/04/30 08:32:03;;;;;;;8.40;4.05;;;12.60;99.90;;;;;;5071403;28;20025;-78
2022/04/30 08:34:30;;;;;;;10.73;4.13;;;12.60;99.90;;;;;;5071774;28;20032;-75
2022/04/30 08:36:55;;;;;;;8.65;4.13;;;12.60;99.90;;;;;;5071014;28;20032;-76
2022/04/30 08:39:21;;;;;;;12.52;4.10;;;12.50;99.90;;;;;;5071847;28;20392;-76
2022/04/30 08:41:47;;;;;;;10.70;3.60;;;12.30;99.90;;;;;;5080072;28;20035;-76
2022/04/30 08:44:14;;;;;;;15.40;4.43;;;12.20;99.90;;;;;;5078398;28;20028;-75
2022/04/30 08:46:41;;;;;;;12.38;4.60;;;12.20;99.90;;;;;;5080130;28;20586;-75
2022/04/30 08:49:08;;;;;;;9.25;4.45;;;12.30;99.90;;;;;;5078123;28;20542;-75
2022/04/30 08:51:33;;;;;;;8.57;4.00;;;12.40;99.90;;;;;;5077258;28;20536;-74
2022/04/30 08:53:59;;;;;;;12.05;4.43;;;12.40;99.90;;;;;;5084728;28;20017;-75
2022/04/30 08:56:25;;;;;;;9.90;4.05;;;12.40;99.90;;;;;;5080576;28;20025;-74
2022/04/30 08:58:56;;;;;;;8.90;4.13;;;12.40;99.90;;;;;;5078379;28;20380;-75
2022/04/30 09:01:22;;;;;;;10.07;4.47;;;12.40;99.90;;;;;;5068857;28;20071;-78
2022/04/30 09:03:48;;;;;;;10.00;4.40;;;12.40;99.90;;;;;;5057630;28;20059;-75
2022/04/30 09:06:20;;;;;;;8.77;4.18;;;12.40;99.90;;;;;;5060491;28;20024;-74
2022/04/30 09:08:49;;;;;;;6.78;4.10;;;12.40;99.90;;;;;;5062016;28;20021;-75
2022/04/30 09:11:15;;;;;;;7.68;3.45;;;12.40;99.90;;;;;;5058003;28;20127;-75
2022/04/30 09:13:42;;;;;;;7.70;4.20;;;12.40;99.90;;;;;;5061114;28;20033;-75
2022/04/30 09:16:20;;;;;;;7.32;4.25;;;12.20;99.90;;;;;;5067415;28;20032;-75
2022/04/30 09:18:48;;;;;;;10.45;4.60;;;12.10;99.90;;;;;;5068504;28;20044;-76
2022/04/30 09:21:14;;;;;;;10.63;4.72;;;12.00;99.90;;;;;;5051931;28;20044;-75
2022/04/30 09:23:40;;;;;;;8.25;4.10;;;12.10;99.90;;;;;;5060012;28;20510;-75
2022/04/30 09:26:09;;;;;;;10.30;4.50;;;12.10;99.90;;;;;;5060964;28;20162;-75
2022/04/30 09:28:36;;;;;;;6.63;4.13;;;12.10;99.90;;;;;;5069435;28;20100;-75
2022/04/30 09:31:07;;;;;;;8.63;3.95;;;12.00;99.90;;;;;;5070141;28;20024;-75
2022/04/30 09:33:33;;;;;;;7.32;3.67;;;12.00;99.90;;;;;;5070086;28;20043;-76
2022/04/30 09:38:53;;;;;;;3.90;3.10;;;11.80;99.90;;;;;;5061579;28;20067;-74
2022/04/30 09:41:26;;;;;;;4.90;3.25;;;11.80;99.90;;;;;;5068818;28;20051;-73
2022/04/30 09:44:00;;;;;;;8.15;3.42;;;11.80;99.90;;;;;;5070687;28;20029;-74
2022/04/30 09:46:27;;;;;;;5.93;3.47;;;11.60;99.90;;;;;;5052239;28;20377;-73
2022/04/30 09:54:22;;;;;;;6.15;4.07;;;11.30;99.90;;;;;;5073859;28;20064;-75
2022/04/30 09:56:49;;;;;;;6.13;4.38;;;11.20;99.90;;;;;;5068195;28;20457;-74
2022/04/30 09:59:15;;;;;;;8.90;4.57;;;11.10;99.90;;;;;;5074824;28;20024;-73
2022/04/30 10:01:42;;;;;;;6.97;4.50;;;11.20;99.90;;;;;;5075309;28;20480;-74
2022/04/30 10:04:14;;;;;;;12.73;4.85;;;11.20;99.90;;;;;;5079010;28;20064;-74
2022/04/30 10:06:48;;;;;;;8.73;5.00;;;11.30;99.90;;;;;;5071184;28;20036;-75
2022/04/30 10:09:18;;;;;;;8.80;5.03;;;11.50;99.90;;;;;;5078965;28;20024;-74
2022/04/30 10:11:56;;;;;;;11.15;5.28;;;11.50;99.90;;;;;;5076623;28;20499;-75
2022/04/30 10:14:47;;;;;;;10.50;5.18;;;11.40;99.90;;;;;;5081013;28;20016;-73
2022/04/30 10:17:16;;;;;;;12.60;5.50;;;11.40;99.90;;;;;;5080248;28;20106;-75
2022/04/30 10:20:18;;;;;;;10.30;4.85;;;11.50;99.90;;;;;;5061120;28;20146;-74
2022/04/30 10:22:54;;;;;;;13.00;5.10;;;11.50;99.90;;;;;;5075420;28;20050;-74
2022/04/30 10:25:48;;;;;;;12.05;5.15;;;11.40;99.90;;;;;;5059649;28;20392;-73
2022/04/30 10:28:17;;;;;;;10.65;4.57;;;11.40;99.90;;;;;;5078581;28;20409;-74
2022/04/30 10:30:45;;;;;;;9.05;5.15;;;11.40;99.90;;;;;;5079353;28;20035;-75
2022/04/30 10:33:11;;;;;;;10.95;4.85;;;11.40;99.90;;;;;;5060178;28;20041;-74
2022/04/30 10:35:39;;;;;;;8.10;4.40;;;11.40;99.90;;;;;;5076775;28;20071;-74
2022/04/30 10:38:15;;;;;;;7.93;3.60;;;11.50;99.90;;;;;;5076252;28;20020;-74
2022/04/30 10:40:45;;;;;;;7.60;3.60;;;11.50;99.90;;;;;;5074865;28;20043;-74
2022/04/30 10:43:35;;;;;;;4.68;2.75;;;11.40;99.90;;;;;;5075863;28;20111;-74
2022/04/30 10:46:03;;;;;;;6.78;2.75;;;11.40;99.90;;;;;;5074910;28;20037;-75
2022/04/30 10:48:29;;;;;;;5.75;2.42;;;11.40;99.90;;;;;;5074851;28;20123;-74
2022/04/30 10:51:05;;;;;;;7.80;2.78;;;11.50;99.90;;;;;;5075282;28;20021;-74
2022/04/30 10:53:32;;;;;;;5.45;2.83;;;11.60;99.90;;;;;;5074275;28;20025;-74
2022/04/30 10:55:59;;;;;;;7.10;2.70;;;11.70;99.90;;;;;;5073412;28;20021;-76
2022/04/30 10:58:25;;;;;;;4.10;2.65;;;11.80;99.90;;;;;;5074333;28;20031;-74
2022/04/30 11:00:51;;;;;;;5.53;2.80;;;11.90;99.90;;;;;;5073815;28;20029;-74
2022/04/30 11:03:17;;;;;;;8.30;3.10;;;12.00;99.90;;;;;;5074176;28;20031;-74
2022/04/30 11:05:48;;;;;;;10.60;3.33;;;12.00;99.90;;;;;;5062427;28;20029;-75
2022/04/30 11:08:14;;;;;;;8.23;3.42;;;12.10;99.90;;;;;;5055470;28;20056;-74
2022/04/30 11:10:52;;;;;;;4.78;2.80;;;11.90;99.90;;;;;;5073452;28;20025;-75
2022/04/30 11:13:18;;;;;;;5.95;3.22;;;11.90;99.90;;;;;;5078765;28;20021;-74
2022/04/30 11:15:43;;;;;;;7.05;2.92;;;11.80;99.90;;;;;;5080418;28;20384;-74
2022/04/30 11:18:09;;;;;;;6.70;2.83;;;11.80;99.90;;;;;;5079270;28;20023;-75
2022/04/30 11:20:35;;;;;;;8.25;2.78;;;11.90;99.90;;;;;;5078935;28;20041;-74
2022/04/30 11:23:00;;;;;;;6.18;2.90;;;12.00;99.90;;;;;;5078724;28;20192;-74
2022/04/30 11:25:38;;;;;;;7.45;2.65;;;12.20;99.90;;;;;;5079028;28;20052;-75
2022/04/30 11:28:08;;;;;;;5.40;2.53;;;12.30;99.90;;;;;;5061513;28;20331;-74
2022/04/30 11:30:39;;;;;;;4.57;2.70;;;12.40;99.90;;;;;;5070877;28;20032;-74
2022/04/30 11:33:06;;;;;;;4.18;2.17;;;12.50;99.90;;;;;;5077551;28;20025;-74
2022/04/30 11:35:32;;;;;;;5.05;2.33;;;12.60;99.90;;;;;;5075837;28;20032;-74
2022/04/30 11:37:58;;;;;;;9.55;2.67;;;12.50;99.90;;;;;;5063062;28;20025;-73
2022/04/30 11:40:25;;;;;;;6.03;2.58;;;12.40;99.90;;;;;;5074003;28;20071;-73
2022/04/30 11:42:58;;;;;;;3.88;2.60;;;12.40;99.90;;;;;;5072538;28;20040;-74
2022/04/30 11:45:31;;;;;;;6.88;2.25;;;12.50;99.90;;;;;;5075716;28;20028;-73
2022/04/30 11:48:00;;;;;;;9.70;2.70;;;12.50;99.90;;;;;;5070115;28;20095;-73
2022/04/30 11:50:27;;;;;;;3.38;1.98;;;12.40;99.90;;;;;;5073675;28;20050;-73
2022/04/30 11:52:54;;;;;;;5.35;2.10;;;12.30;99.90;;;;;;5062126;28;20040;-73
2022/04/30 11:55:23;;;;;;;7.20;1.98;;;12.40;99.90;;;;;;5056525;28;20143;-73
2022/04/30 11:57:49;;;;;;;2.72;1.40;;;12.50;99.90;;;;;;5070158;28;20025;-74
2022/04/30 12:00:18;;;;;;;3.67;1.60;;;12.50;99.90;;;;;;5066648;28;20043;-72
2022/04/30 12:02:49;;;;;;;1.85;1.25;;;12.50;99.90;;;;;;5040042;28;20024;-73
2022/04/30 12:05:15;;;;;;;4.03;1.48;;;12.70;99.90;;;;;;5062466;28;20090;-73
2022/04/30 12:07:42;;;;;;;3.03;1.13;;;12.80;99.90;;;;;;5058915;28;20016;-73
2022/04/30 12:10:26;;;;;;;2.50;1.33;;;12.80;99.80;;;;;;5055435;28;20014;-73
2022/04/30 12:12:52;;;;;;;4.90;1.73;;;12.90;99.90;;;;;;5061976;28;20028;-72
2022/04/30 12:15:27;;;;;;;4.45;1.80;;;13.00;98.10;;;;;;5076205;28;20028;-73
2022/04/30 12:26:51;;;;;;;3.95;1.92;;;12.90;98.90;;;;;;5084409;28;20153;-78
2022/04/30 12:29:20;;;;;;;5.10;2.10;;;12.80;99.90;;;;;;5084034;28;20017;-77
2022/04/30 12:31:47;;;;;;;6.32;2.60;;;13.00;99.90;;;;;;5058050;28;20039;-76
2022/04/30 12:34:27;;;;;;;3.47;1.58;;;13.40;99.90;;;;;;5075866;28;20020;-73
2022/04/30 12:36:55;;;;;;;4.68;1.90;;;13.60;98.90;;;;;;5056534;28;20052;-74
2022/04/30 12:39:22;;;;;;;7.45;2.30;;;13.70;98.60;;;;;;5076247;28;20043;-74
2022/04/30 12:41:48;;;;;;;4.70;1.92;;;13.70;98.90;;;;;;5059648;28;20024;-73
2022/04/30 12:44:15;;;;;;;4.82;1.90;;;13.90;98.80;;;;;;5078644;28;20035;-75
2022/04/30 12:46:44;;;;;;;5.10;2.00;;;14.00;98.70;;;;;;5081685;28;20024;-75
2022/04/30 12:49:12;;;;;;;5.55;1.75;;;14.20;98.30;;;;;;5081701;28;20020;-74
2022/04/30 12:51:39;;;;;;;8.82;2.28;;;14.30;96.80;;;;;;5081978;28;20040;-75
2022/04/30 12:54:06;;;;;;;4.00;1.75;;;14.10;97.20;;;;;;5080422;28;20378;-74
2022/04/30 12:56:32;;;;;;;5.68;1.85;;;14.20;97.80;;;;;;5080792;28;20027;-74
2022/04/30 12:58:58;;;;;;;4.50;2.03;;;14.20;96.80;;;;;;5079049;28;20404;-75
2022/04/30 13:01:23;;;;;;;5.65;2.03;;;14.20;96.90;;;;;;5058886;28;20021;-74
2022/04/30 13:03:49;;;;;;;7.88;2.03;;;14.20;96.80;;;;;;5071983;28;20495;-73
2022/04/30 13:06:16;;;;;;;5.40;2.10;;;14.20;96.90;;;;;;5060458;28;20070;-74
2022/04/30 13:14:10;;;;;;;7.28;2.30;;;14.00;97.20;;;;;;5075321;28;20081;-74
2022/04/30 13:16:35;;;;;;;7.35;2.10;;;14.00;97.50;;;;;;5075819;28;20064;-75
2022/04/30 13:19:01;;;;;;;7.88;2.22;;;14.10;97.60;;;;;;5075716;28;20025;-74
2022/04/30 13:21:27;;;;;;;5.43;2.10;;;14.20;97.10;;;;;;5066133;28;20444;-73
2022/04/30 13:23:52;;;;;;;6.63;2.20;;;14.30;97.00;;;;;;5059136;28;20379;-73
2022/04/30 13:26:20;;;;;;;7.03;2.05;;;14.30;96.60;;;;;;5074619;28;20025;-74
2022/04/30 13:28:46;;;;;;;9.13;2.03;;;14.30;96.60;;;;;;5076752;28;20021;-74
2022/04/30 13:31:12;;;;;;;6.55;2.17;;;14.30;96.90;;;;;;5075830;28;20032;-73
2022/04/30 13:33:38;;;;;;;7.70;2.00;;;14.40;96.90;;;;;;5078395;28;20422;-74
2022/04/30 13:36:05;;;;;;;6.07;2.30;;;14.50;97.00;;;;;;5083054;28;20462;-74